sensor_id;sensor_type;location;lat;lon;timestamp;temperature;humidity
12885;DHT22;6510;51.362;7.370;2023-06-04T00:00:42;11.60;99.90
12885;DHT22;6510;51.362;7.370;2023-06-04T00:03:08;11.60;99.90
12885;DHT22;6510;51.362;7.370;2023-06-04T00:05:34;11.60;99.90
12885;DHT22;6510;51.362;7.370;2023-06-04T00:07:59;11.60;99.90
12885;DHT22;6510;51.362;7.370;2023-06-04T00:10:25;11.50;99.90
12885;DHT22;6510;51.362;7.370;2023-06-04T00:12:50;11.50;99.90
12885;DHT22;6510;51.362;7.370;2023-06-04T00:15:16;11.70;99.90
12885;DHT22;6510;51.362;7.370;2023-06-04T00:17:42;11.90;99.90
12885;DHT22;6510;51.362;7.370;2023-06-04T00:20:08;12.00;99.90
12885;DHT22;6510;51.362;7.370;2023-06-04T00:22:34;12.10;99.90
12885;DHT22;6510;51.362;7.370;2023-06-04T00:25:00;12.10;99.90
12885;DHT22;6510;51.362;7.370;2023-06-04T00:27:25;12.10;99.90
12885;DHT22;6510;51.362;7.370;2023-06-04T00:29:51;12.10;99.90
12885;DHT22;6510;51.362;7.370;2023-06-04T00:32:17;12.20;99.90
12885;DHT22;6510;51.362;7.370;2023-06-04T00:34:42;12.10;99.90
12885;DHT22;6510;51.362;7.370;2023-06-04T00:37:08;12.10;99.90
12885;DHT22;6510;51.362;7.370;2023-06-04T00:39:34;12.10;99.90
12885;DHT22;6510;51.362;7.370;2023-06-04T00:42:00;12.10;99.90
12885;DHT22;6510;51.362;7.370;2023-06-04T00:44:26;12.00;99.90
12885;DHT22;6510;51.362;7.370;2023-06-04T00:46:52;12.00;99.90
12885;DHT22;6510;51.362;7.370;2023-06-04T00:49:19;11.90;99.90
12885;DHT22;6510;51.362;7.370;2023-06-04T00:51:45;11.80;99.90
12885;DHT22;6510;51.362;7.370;2023-06-04T00:54:12;11.90;99.90
12885;DHT22;6510;51.362;7.370;2023-06-04T00:56:39;11.80;99.90
12885;DHT22;6510;51.362;7.370;2023-06-04T00:59:07;11.80;99.90
12885;DHT22;6510;51.362;7.370;2023-06-04T01:04:10;11.60;99.90
12885;DHT22;6510;51.362;7.370;2023-06-04T01:06:43;11.50;99.90
12885;DHT22;6510;51.362;7.370;2023-06-04T01:09:10;11.40;99.90
12885;DHT22;6510;51.362;7.370;2023-06-04T01:11:37;11.30;99.90
12885;DHT22;6510;51.362;7.370;2023-06-04T01:14:04;11.40;99.90
12885;DHT22;6510;51.362;7.370;2023-06-04T01:16:43;11.50;99.90
12885;DHT22;6510;51.362;7.370;2023-06-04T01:19:32;11.60;99.90
12885;DHT22;6510;51.362;7.370;2023-06-04T01:22:05;11.50;99.90
12885;DHT22;6510;51.362;7.370;2023-06-04T01:24:37;11.50;99.90
12885;DHT22;6510;51.362;7.370;2023-06-04T01:27:07;11.40;99.90
12885;DHT22;6510;51.362;7.370;2023-06-04T01:29:34;11.20;99.90
12885;DHT22;6510;51.362;7.370;2023-06-04T01:32:02;11.10;99.90
12885;DHT22;6510;51.362;7.370;2023-06-04T01:34:29;11.00;99.90
12885;DHT22;6510;51.362;7.370;2023-06-04T01:36:54;11.00;99.90
12885;DHT22;6510;51.362;7.370;2023-06-04T01:39:20;10.90;99.90
12885;DHT22;6510;51.362;7.370;2023-06-04T01:41:45;10.70;99.90
12885;DHT22;6510;51.362;7.370;2023-06-04T01:44:11;10.60;99.90
12885;DHT22;6510;51.362;7.370;2023-06-04T01:46:36;10.40;99.90
12885;DHT22;6510;51.362;7.370;2023-06-04T01:49:02;10.40;99.90
12885;DHT22;6510;51.362;7.370;2023-06-04T01:51:28;10.30;99.90
12885;DHT22;6510;51.362;7.370;2023-06-04T01:53:53;10.20;99.90
12885;DHT22;6510;51.362;7.370;2023-06-04T01:56:19;10.20;99.90
12885;DHT22;6510;51.362;7.370;2023-06-04T01:58:46;10.20;99.90
12885;DHT22;6510;51.362;7.370;2023-06-04T02:01:12;10.20;99.90
12885;DHT22;6510;51.362;7.370;2023-06-04T02:03:37;10.10;99.90
12885;DHT22;6510;51.362;7.370;2023-06-04T02:06:06;10.00;99.90
12885;DHT22;6510;51.362;7.370;2023-06-04T02:08:33;9.90;99.90
12885;DHT22;6510;51.362;7.370;2023-06-04T02:10:59;9.80;99.90
12885;DHT22;6510;51.362;7.370;2023-06-04T02:13:25;9.80;99.90
12885;DHT22;6510;51.362;7.370;2023-06-04T02:15:50;9.80;99.90
12885;DHT22;6510;51.362;7.370;2023-06-04T02:18:18;9.80;99.90
12885;DHT22;6510;51.362;7.370;2023-06-04T02:20:47;9.70;99.90
12885;DHT22;6510;51.362;7.370;2023-06-04T02:23:14;9.60;99.90
12885;DHT22;6510;51.362;7.370;2023-06-04T02:25:40;9.50;99.90
12885;DHT22;6510;51.362;7.370;2023-06-04T02:28:07;9.50;99.90
12885;DHT22;6510;51.362;7.370;2023-06-04T02:30:33;9.50;99.90
12885;DHT22;6510;51.362;7.370;2023-06-04T02:32:58;9.50;99.90
12885;DHT22;6510;51.362;7.370;2023-06-04T02:35:29;9.50;99.90
12885;DHT22;6510;51.362;7.370;2023-06-04T02:37:55;9.50;99.90
12885;DHT22;6510;51.362;7.370;2023-06-04T02:40:27;9.50;99.90
12885;DHT22;6510;51.362;7.370;2023-06-04T02:42:53;9.50;99.90
12885;DHT22;6510;51.362;7.370;2023-06-04T02:45:19;9.50;99.90
12885;DHT22;6510;51.362;7.370;2023-06-04T02:47:45;9.50;99.90
12885;DHT22;6510;51.362;7.370;2023-06-04T02:50:12;9.60;99.90
12885;DHT22;6510;51.362;7.370;2023-06-04T02:52:38;9.50;99.90
12885;DHT22;6510;51.362;7.370;2023-06-04T02:55:06;9.50;99.90
12885;DHT22;6510;51.362;7.370;2023-06-04T02:57:32;9.40;99.90
12885;DHT22;6510;51.362;7.370;2023-06-04T02:59:59;9.30;99.90
12885;DHT22;6510;51.362;7.370;2023-06-04T03:02:25;9.30;99.90
12885;DHT22;6510;51.362;7.370;2023-06-04T03:04:51;9.20;99.90
12885;DHT22;6510;51.362;7.370;2023-06-04T03:07:17;9.20;99.90
12885;DHT22;6510;51.362;7.370;2023-06-04T03:09:46;9.10;99.90
12885;DHT22;6510;51.362;7.370;2023-06-04T03:12:12;9.20;99.90
12885;DHT22;6510;51.362;7.370;2023-06-04T03:14:38;9.20;99.90
12885;DHT22;6510;51.362;7.370;2023-06-04T03:17:05;9.20;99.90
12885;DHT22;6510;51.362;7.370;2023-06-04T03:19:40;9.20;99.90
12885;DHT22;6510;51.362;7.370;2023-06-04T03:22:08;9.20;99.90
12885;DHT22;6510;51.362;7.370;2023-06-04T03:24:38;9.20;99.90
12885;DHT22;6510;51.362;7.370;2023-06-04T03:27:05;9.20;99.90
12885;DHT22;6510;51.362;7.370;2023-06-04T03:29:31;9.10;99.90
12885;DHT22;6510;51.362;7.370;2023-06-04T03:31:57;9.10;99.90
12885;DHT22;6510;51.362;7.370;2023-06-04T03:34:23;9.10;99.90
12885;DHT22;6510;51.362;7.370;2023-06-04T03:36:53;9.10;99.90
12885;DHT22;6510;51.362;7.370;2023-06-04T03:39:19;9.00;99.90
12885;DHT22;6510;51.362;7.370;2023-06-04T03:41:44;9.00;99.90
12885;DHT22;6510;51.362;7.370;2023-06-04T03:44:12;8.90;99.90
12885;DHT22;6510;51.362;7.370;2023-06-04T03:46:39;8.90;99.90
12885;DHT22;6510;51.362;7.370;2023-06-04T03:49:04;8.90;99.90
12885;DHT22;6510;51.362;7.370;2023-06-04T03:51:30;8.90;99.90
12885;DHT22;6510;51.362;7.370;2023-06-04T03:53:57;9.00;99.90
12885;DHT22;6510;51.362;7.370;2023-06-04T03:56:23;9.00;99.90
12885;DHT22;6510;51.362;7.370;2023-06-04T03:58:49;9.00;99.90
12885;DHT22;6510;51.362;7.370;2023-06-04T04:01:15;9.10;99.90
12885;DHT22;6510;51.362;7.370;2023-06-04T04:03:40;9.10;99.90
12885;DHT22;6510;51.362;7.370;2023-06-04T04:06:09;9.20;99.90
12885;DHT22;6510;51.362;7.370;2023-06-04T04:08:35;9.20;99.90
12885;DHT22;6510;51.362;7.370;2023-06-04T04:11:02;9.30;99.90
12885;DHT22;6510;51.362;7.370;2023-06-04T04:13:28;9.30;99.90
12885;DHT22;6510;51.362;7.370;2023-06-04T04:15:54;9.50;99.90
12885;DHT22;6510;51.362;7.370;2023-06-04T04:18:20;9.50;99.90
12885;DHT22;6510;51.362;7.370;2023-06-04T04:20:46;9.60;99.90
12885;DHT22;6510;51.362;7.370;2023-06-04T04:23:12;9.60;99.90
12885;DHT22;6510;51.362;7.370;2023-06-04T04:25:38;9.60;99.90
12885;DHT22;6510;51.362;7.370;2023-06-04T04:28:04;9.60;99.90
12885;DHT22;6510;51.362;7.370;2023-06-04T04:30:36;9.70;99.90
12885;DHT22;6510;51.362;7.370;2023-06-04T04:33:02;9.70;99.90
12885;DHT22;6510;51.362;7.370;2023-06-04T04:35:30;9.70;99.90
12885;DHT22;6510;51.362;7.370;2023-06-04T04:37:58;9.70;99.90
12885;DHT22;6510;51.362;7.370;2023-06-04T04:40:24;9.70;99.90
12885;DHT22;6510;51.362;7.370;2023-06-04T04:42:50;9.80;99.90
12885;DHT22;6510;51.362;7.370;2023-06-04T04:45:16;9.80;99.90
12885;DHT22;6510;51.362;7.370;2023-06-04T04:47:43;9.80;99.90
12885;DHT22;6510;51.362;7.370;2023-06-04T04:50:08;10.00;99.90
12885;DHT22;6510;51.362;7.370;2023-06-04T04:52:34;10.10;99.90
12885;DHT22;6510;51.362;7.370;2023-06-04T04:55:00;10.20;99.90
12885;DHT22;6510;51.362;7.370;2023-06-04T04:57:26;10.30;99.90
12885;DHT22;6510;51.362;7.370;2023-06-04T04:59:51;10.50;99.90
12885;DHT22;6510;51.362;7.370;2023-06-04T05:02:17;10.70;99.90
12885;DHT22;6510;51.362;7.370;2023-06-04T05:04:43;11.30;99.90
12885;DHT22;6510;51.362;7.370;2023-06-04T05:07:09;12.30;99.90
12885;DHT22;6510;51.362;7.370;2023-06-04T05:09:34;13.10;99.90
12885;DHT22;6510;51.362;7.370;2023-06-04T05:12:01;13.70;99.90
12885;DHT22;6510;51.362;7.370;2023-06-04T05:14:27;14.40;99.90
12885;DHT22;6510;51.362;7.370;2023-06-04T05:16:54;14.60;99.90
12885;DHT22;6510;51.362;7.370;2023-06-04T05:19:22;15.10;99.90
12885;DHT22;6510;51.362;7.370;2023-06-04T05:21:48;15.40;99.90
12885;DHT22;6510;51.362;7.370;2023-06-04T05:24:14;15.40;99.90
12885;DHT22;6510;51.362;7.370;2023-06-04T05:26:40;16.10;99.90
12885;DHT22;6510;51.362;7.370;2023-06-04T05:29:06;16.50;99.90
12885;DHT22;6510;51.362;7.370;2023-06-04T05:31:31;17.00;99.90
12885;DHT22;6510;51.362;7.370;2023-06-04T05:33:59;16.90;99.90
12885;DHT22;6510;51.362;7.370;2023-06-04T05:36:30;16.90;99.90
12885;DHT22;6510;51.362;7.370;2023-06-04T05:38:56;16.80;99.90
12885;DHT22;6510;51.362;7.370;2023-06-04T05:41:27;17.10;99.30
12885;DHT22;6510;51.362;7.370;2023-06-04T05:43:53;17.00;99.80
12885;DHT22;6510;51.362;7.370;2023-06-04T05:46:18;16.90;98.80
12885;DHT22;6510;51.362;7.370;2023-06-04T05:48:45;17.30;99.20
12885;DHT22;6510;51.362;7.370;2023-06-04T05:51:13;17.40;98.60
12885;DHT22;6510;51.362;7.370;2023-06-04T05:53:39;17.80;98.90
12885;DHT22;6510;51.362;7.370;2023-06-04T05:56:05;18.00;97.60
12885;DHT22;6510;51.362;7.370;2023-06-04T05:58:32;18.30;96.40
12885;DHT22;6510;51.362;7.370;2023-06-04T06:00:58;18.60;95.10
12885;DHT22;6510;51.362;7.370;2023-06-04T06:03:24;19.40;95.20
12885;DHT22;6510;51.362;7.370;2023-06-04T06:05:49;19.60;95.00
12885;DHT22;6510;51.362;7.370;2023-06-04T06:08:15;19.80;93.90
12885;DHT22;6510;51.362;7.370;2023-06-04T06:10:44;19.90;92.90
12885;DHT22;6510;51.362;7.370;2023-06-04T06:13:10;20.10;93.50
12885;DHT22;6510;51.362;7.370;2023-06-04T06:15:35;20.30;92.80
12885;DHT22;6510;51.362;7.370;2023-06-04T06:18:01;20.70;91.80
12885;DHT22;6510;51.362;7.370;2023-06-04T06:20:27;21.10;90.80
12885;DHT22;6510;51.362;7.370;2023-06-04T06:22:54;20.90;88.60
12885;DHT22;6510;51.362;7.370;2023-06-04T06:25:20;20.30;90.40
12885;DHT22;6510;51.362;7.370;2023-06-04T06:27:46;20.20;90.70
12885;DHT22;6510;51.362;7.370;2023-06-04T06:30:13;20.50;91.40
12885;DHT22;6510;51.362;7.370;2023-06-04T06:32:40;21.30;88.40
12885;DHT22;6510;51.362;7.370;2023-06-04T06:35:06;21.70;87.00
12885;DHT22;6510;51.362;7.370;2023-06-04T06:37:33;21.40;85.20
12885;DHT22;6510;51.362;7.370;2023-06-04T06:39:58;21.90;85.20
12885;DHT22;6510;51.362;7.370;2023-06-04T06:42:24;22.30;83.90
12885;DHT22;6510;51.362;7.370;2023-06-04T06:44:50;22.40;84.70
12885;DHT22;6510;51.362;7.370;2023-06-04T06:47:16;22.50;81.20
12885;DHT22;6510;51.362;7.370;2023-06-04T06:49:42;22.80;78.90
12885;DHT22;6510;51.362;7.370;2023-06-04T06:52:07;22.40;80.20
12885;DHT22;6510;51.362;7.370;2023-06-04T06:54:33;22.50;79.50
12885;DHT22;6510;51.362;7.370;2023-06-04T06:56:59;22.10;82.70
12885;DHT22;6510;51.362;7.370;2023-06-04T06:59:24;22.50;80.20
12885;DHT22;6510;51.362;7.370;2023-06-04T07:01:50;23.10;80.50
12885;DHT22;6510;51.362;7.370;2023-06-04T07:04:16;23.30;79.10
12885;DHT22;6510;51.362;7.370;2023-06-04T07:06:42;23.60;75.80
12885;DHT22;6510;51.362;7.370;2023-06-04T07:09:08;23.80;74.10
12885;DHT22;6510;51.362;7.370;2023-06-04T07:11:34;24.50;74.10
12885;DHT22;6510;51.362;7.370;2023-06-04T07:14:00;24.50;72.50
12885;DHT22;6510;51.362;7.370;2023-06-04T07:16:29;24.60;74.70
12885;DHT22;6510;51.362;7.370;2023-06-04T07:18:54;24.60;73.10
12885;DHT22;6510;51.362;7.370;2023-06-04T07:21:20;24.50;73.70
12885;DHT22;6510;51.362;7.370;2023-06-04T07:23:47;25.40;72.70
12885;DHT22;6510;51.362;7.370;2023-06-04T07:26:15;25.60;68.90
12885;DHT22;6510;51.362;7.370;2023-06-04T07:28:41;25.80;68.80
12885;DHT22;6510;51.362;7.370;2023-06-04T07:31:07;26.30;71.00
12885;DHT22;6510;51.362;7.370;2023-06-04T07:33:33;26.30;67.00
12885;DHT22;6510;51.362;7.370;2023-06-04T07:35:59;27.00;67.70
12885;DHT22;6510;51.362;7.370;2023-06-04T07:38:25;27.40;66.20
12885;DHT22;6510;51.362;7.370;2023-06-04T07:40:51;26.30;67.30
12885;DHT22;6510;51.362;7.370;2023-06-04T07:43:16;26.90;69.30
12885;DHT22;6510;51.362;7.370;2023-06-04T07:45:42;27.50;67.00
12885;DHT22;6510;51.362;7.370;2023-06-04T07:48:11;27.40;65.70
12885;DHT22;6510;51.362;7.370;2023-06-04T07:50:37;27.10;66.70
12885;DHT22;6510;51.362;7.370;2023-06-04T07:53:02;27.00;67.20
12885;DHT22;6510;51.362;7.370;2023-06-04T07:55:28;27.50;62.90
12885;DHT22;6510;51.362;7.370;2023-06-04T07:57:54;27.50;62.50
12885;DHT22;6510;51.362;7.370;2023-06-04T08:00:20;27.70;65.60
12885;DHT22;6510;51.362;7.370;2023-06-04T08:02:46;27.20;63.80
12885;DHT22;6510;51.362;7.370;2023-06-04T08:05:11;27.80;62.60
12885;DHT22;6510;51.362;7.370;2023-06-04T08:07:40;28.00;64.40
12885;DHT22;6510;51.362;7.370;2023-06-04T08:10:06;27.50;62.00
12885;DHT22;6510;51.362;7.370;2023-06-04T08:12:32;27.60;63.30
12885;DHT22;6510;51.362;7.370;2023-06-04T08:14:58;27.70;62.60
12885;DHT22;6510;51.362;7.370;2023-06-04T08:17:23;28.20;66.10
12885;DHT22;6510;51.362;7.370;2023-06-04T08:19:49;28.30;60.90
12885;DHT22;6510;51.362;7.370;2023-06-04T08:22:15;28.70;63.40
12885;DHT22;6510;51.362;7.370;2023-06-04T08:24:41;29.70;62.00
12885;DHT22;6510;51.362;7.370;2023-06-04T08:27:06;29.50;60.20
12885;DHT22;6510;51.362;7.370;2023-06-04T08:29:36;29.70;59.30
12885;DHT22;6510;51.362;7.370;2023-06-04T08:32:05;29.60;59.10
12885;DHT22;6510;51.362;7.370;2023-06-04T08:34:33;28.90;61.60
12885;DHT22;6510;51.362;7.370;2023-06-04T08:36:58;29.60;61.90
12885;DHT22;6510;51.362;7.370;2023-06-04T08:39:24;30.00;63.80
12885;DHT22;6510;51.362;7.370;2023-06-04T08:41:52;30.40;62.30
12885;DHT22;6510;51.362;7.370;2023-06-04T08:44:19;31.40;60.50
12885;DHT22;6510;51.362;7.370;2023-06-04T08:46:47;31.60;59.60
12885;DHT22;6510;51.362;7.370;2023-06-04T08:49:16;31.30;57.80
12885;DHT22;6510;51.362;7.370;2023-06-04T08:51:43;31.30;58.80
12885;DHT22;6510;51.362;7.370;2023-06-04T08:54:09;31.60;57.80
12885;DHT22;6510;51.362;7.370;2023-06-04T08:56:41;31.00;57.90
12885;DHT22;6510;51.362;7.370;2023-06-04T08:59:14;31.10;55.80
12885;DHT22;6510;51.362;7.370;2023-06-04T09:01:43;30.90;55.60
12885;DHT22;6510;51.362;7.370;2023-06-04T09:04:10;31.00;56.40
12885;DHT22;6510;51.362;7.370;2023-06-04T09:06:39;31.60;57.20
12885;DHT22;6510;51.362;7.370;2023-06-04T09:09:05;32.20;54.40
12885;DHT22;6510;51.362;7.370;2023-06-04T09:12:00;32.30;55.00
12885;DHT22;6510;51.362;7.370;2023-06-04T09:14:27;31.90;53.40
12885;DHT22;6510;51.362;7.370;2023-06-04T09:17:03;32.20;55.30
12885;DHT22;6510;51.362;7.370;2023-06-04T09:19:32;32.50;54.70
12885;DHT22;6510;51.362;7.370;2023-06-04T09:22:01;32.60;53.00
12885;DHT22;6510;51.362;7.370;2023-06-04T09:24:42;31.70;56.40
12885;DHT22;6510;51.362;7.370;2023-06-04T09:27:17;32.70;55.00
12885;DHT22;6510;51.362;7.370;2023-06-04T09:29:56;32.70;53.10
12885;DHT22;6510;51.362;7.370;2023-06-04T09:32:29;32.40;53.90
12885;DHT22;6510;51.362;7.370;2023-06-04T09:35:07;32.40;53.80
12885;DHT22;6510;51.362;7.370;2023-06-04T09:37:34;32.90;51.40
12885;DHT22;6510;51.362;7.370;2023-06-04T09:40:00;33.40;51.90
12885;DHT22;6510;51.362;7.370;2023-06-04T09:42:25;33.90;51.90
12885;DHT22;6510;51.362;7.370;2023-06-04T09:44:51;34.70;51.40
12885;DHT22;6510;51.362;7.370;2023-06-04T09:47:17;34.60;49.00
12885;DHT22;6510;51.362;7.370;2023-06-04T09:49:46;33.40;47.90
12885;DHT22;6510;51.362;7.370;2023-06-04T09:52:13;33.20;51.30
12885;DHT22;6510;51.362;7.370;2023-06-04T09:54:40;33.70;48.20
12885;DHT22;6510;51.362;7.370;2023-06-04T09:57:17;33.80;48.00
12885;DHT22;6510;51.362;7.370;2023-06-04T09:59:45;34.20;50.90
12885;DHT22;6510;51.362;7.370;2023-06-04T10:02:12;34.40;47.80
12885;DHT22;6510;51.362;7.370;2023-06-04T10:04:41;35.20;50.00
12885;DHT22;6510;51.362;7.370;2023-06-04T10:07:09;35.60;47.00
12885;DHT22;6510;51.362;7.370;2023-06-04T10:09:38;35.40;48.60
12885;DHT22;6510;51.362;7.370;2023-06-04T10:12:14;34.40;50.20
12885;DHT22;6510;51.362;7.370;2023-06-04T10:15:02;34.30;50.40
12885;DHT22;6510;51.362;7.370;2023-06-04T10:17:28;34.60;49.10
12885;DHT22;6510;51.362;7.370;2023-06-04T10:19:56;34.70;48.50
12885;DHT22;6510;51.362;7.370;2023-06-04T10:22:24;35.10;46.60
12885;DHT22;6510;51.362;7.370;2023-06-04T10:24:50;35.30;47.70
12885;DHT22;6510;51.362;7.370;2023-06-04T10:27:17;35.30;48.30
12885;DHT22;6510;51.362;7.370;2023-06-04T10:29:46;35.70;47.10
12885;DHT22;6510;51.362;7.370;2023-06-04T10:32:11;35.40;46.70
12885;DHT22;6510;51.362;7.370;2023-06-04T10:34:37;34.90;46.80
12885;DHT22;6510;51.362;7.370;2023-06-04T10:37:03;35.20;46.70
12885;DHT22;6510;51.362;7.370;2023-06-04T10:39:30;35.50;47.60
12885;DHT22;6510;51.362;7.370;2023-06-04T10:42:04;36.30;47.10
12885;DHT22;6510;51.362;7.370;2023-06-04T10:44:47;36.50;44.60
12885;DHT22;6510;51.362;7.370;2023-06-04T10:49:46;35.60;45.60
12885;DHT22;6510;51.362;7.370;2023-06-04T10:52:12;35.10;45.10
12885;DHT22;6510;51.362;7.370;2023-06-04T10:54:38;36.50;49.60
12885;DHT22;6510;51.362;7.370;2023-06-04T10:57:16;37.20;47.00
12885;DHT22;6510;51.362;7.370;2023-06-04T10:59:56;35.60;45.70
12885;DHT22;6510;51.362;7.370;2023-06-04T11:02:23;35.80;44.10
12885;DHT22;6510;51.362;7.370;2023-06-04T11:05:05;36.80;45.00
12885;DHT22;6510;51.362;7.370;2023-06-04T11:07:42;37.10;46.10
12885;DHT22;6510;51.362;7.370;2023-06-04T11:10:12;37.10;45.00
12885;DHT22;6510;51.362;7.370;2023-06-04T11:12:56;36.00;46.70
12885;DHT22;6510;51.362;7.370;2023-06-04T11:15:22;36.80;45.00
12885;DHT22;6510;51.362;7.370;2023-06-04T11:17:57;36.90;44.40
12885;DHT22;6510;51.362;7.370;2023-06-04T11:20:25;36.60;43.00
12885;DHT22;6510;51.362;7.370;2023-06-04T11:25:17;36.10;46.20
12885;DHT22;6510;51.362;7.370;2023-06-04T11:27:43;36.50;46.00
12885;DHT22;6510;51.362;7.370;2023-06-04T11:30:09;36.70;46.40
12885;DHT22;6510;51.362;7.370;2023-06-04T11:32:37;35.40;43.50
12885;DHT22;6510;51.362;7.370;2023-06-04T11:35:06;36.90;44.60
12885;DHT22;6510;51.362;7.370;2023-06-04T11:37:32;37.50;46.00
12885;DHT22;6510;51.362;7.370;2023-06-04T11:39:59;37.60;43.30
12885;DHT22;6510;51.362;7.370;2023-06-04T11:42:27;36.90;43.20
12885;DHT22;6510;51.362;7.370;2023-06-04T11:44:56;36.20;45.90
12885;DHT22;6510;51.362;7.370;2023-06-04T11:47:23;35.60;46.90
12885;DHT22;6510;51.362;7.370;2023-06-04T11:49:54;36.60;44.30
12885;DHT22;6510;51.362;7.370;2023-06-04T11:52:21;34.80;43.90
12885;DHT22;6510;51.362;7.370;2023-06-04T11:54:47;35.00;48.60
12885;DHT22;6510;51.362;7.370;2023-06-04T11:57:13;35.70;47.00
12885;DHT22;6510;51.362;7.370;2023-06-04T11:59:39;36.50;46.10
12885;DHT22;6510;51.362;7.370;2023-06-04T12:02:07;36.60;42.80
12885;DHT22;6510;51.362;7.370;2023-06-04T12:04:32;36.40;45.60
12885;DHT22;6510;51.362;7.370;2023-06-04T12:07:00;36.70;46.00
12885;DHT22;6510;51.362;7.370;2023-06-04T12:09:31;36.90;45.20
12885;DHT22;6510;51.362;7.370;2023-06-04T12:12:01;36.30;45.70
12885;DHT22;6510;51.362;7.370;2023-06-04T12:14:28;35.80;44.70
12885;DHT22;6510;51.362;7.370;2023-06-04T12:16:58;35.90;46.60
12885;DHT22;6510;51.362;7.370;2023-06-04T12:19:24;36.00;44.30
12885;DHT22;6510;51.362;7.370;2023-06-04T12:22:05;35.70;45.10
12885;DHT22;6510;51.362;7.370;2023-06-04T12:24:32;34.30;45.80
12885;DHT22;6510;51.362;7.370;2023-06-04T12:27:05;34.80;46.70
12885;DHT22;6510;51.362;7.370;2023-06-04T12:29:32;33.60;45.70
12885;DHT22;6510;51.362;7.370;2023-06-04T12:32:09;33.70;45.30
12885;DHT22;6510;51.362;7.370;2023-06-04T12:34:35;34.30;44.50
12885;DHT22;6510;51.362;7.370;2023-06-04T12:37:01;35.90;47.70
12885;DHT22;6510;51.362;7.370;2023-06-04T12:39:29;36.50;44.70
12885;DHT22;6510;51.362;7.370;2023-06-04T12:41:55;36.10;45.10
12885;DHT22;6510;51.362;7.370;2023-06-04T12:44:24;36.90;45.80
12885;DHT22;6510;51.362;7.370;2023-06-04T12:46:52;37.10;44.80
12885;DHT22;6510;51.362;7.370;2023-06-04T12:49:18;36.00;42.40
12885;DHT22;6510;51.362;7.370;2023-06-04T12:51:43;34.60;46.70
12885;DHT22;6510;51.362;7.370;2023-06-04T12:54:09;35.60;46.80
12885;DHT22;6510;51.362;7.370;2023-06-04T12:56:36;36.00;45.50
12885;DHT22;6510;51.362;7.370;2023-06-04T12:59:01;35.90;45.40
12885;DHT22;6510;51.362;7.370;2023-06-04T13:01:27;36.00;43.50
12885;DHT22;6510;51.362;7.370;2023-06-04T13:03:53;36.30;48.10
12885;DHT22;6510;51.362;7.370;2023-06-04T13:06:20;36.50;44.00
12885;DHT22;6510;51.362;7.370;2023-06-04T13:08:46;37.30;45.30
12885;DHT22;6510;51.362;7.370;2023-06-04T13:11:12;36.90;43.20
12885;DHT22;6510;51.362;7.370;2023-06-04T13:13:38;37.30;44.20
12885;DHT22;6510;51.362;7.370;2023-06-04T13:16:04;37.00;43.10
12885;DHT22;6510;51.362;7.370;2023-06-04T13:18:30;36.90;44.40
12885;DHT22;6510;51.362;7.370;2023-06-04T13:20:55;36.90;43.90
12885;DHT22;6510;51.362;7.370;2023-06-04T13:23:22;35.80;42.40
12885;DHT22;6510;51.362;7.370;2023-06-04T13:25:48;35.20;43.40
12885;DHT22;6510;51.362;7.370;2023-06-04T13:28:13;36.10;43.40
12885;DHT22;6510;51.362;7.370;2023-06-04T13:30:39;34.80;44.50
12885;DHT22;6510;51.362;7.370;2023-06-04T13:33:05;35.10;44.10
12885;DHT22;6510;51.362;7.370;2023-06-04T13:35:31;35.20;45.30
12885;DHT22;6510;51.362;7.370;2023-06-04T13:37:57;34.50;47.20
12885;DHT22;6510;51.362;7.370;2023-06-04T13:40:23;34.60;44.40
12885;DHT22;6510;51.362;7.370;2023-06-04T13:42:49;34.30;44.70
12885;DHT22;6510;51.362;7.370;2023-06-04T13:45:14;34.70;45.50
12885;DHT22;6510;51.362;7.370;2023-06-04T13:47:42;35.00;44.70
12885;DHT22;6510;51.362;7.370;2023-06-04T13:50:08;35.40;43.70
12885;DHT22;6510;51.362;7.370;2023-06-04T13:52:34;35.40;43.40
12885;DHT22;6510;51.362;7.370;2023-06-04T13:54:59;35.10;43.70
12885;DHT22;6510;51.362;7.370;2023-06-04T13:57:26;34.30;44.40
12885;DHT22;6510;51.362;7.370;2023-06-04T13:59:53;33.70;44.40
12885;DHT22;6510;51.362;7.370;2023-06-04T14:02:19;33.70;44.60
12885;DHT22;6510;51.362;7.370;2023-06-04T14:04:44;34.10;45.00
12885;DHT22;6510;51.362;7.370;2023-06-04T14:07:10;33.60;43.50
12885;DHT22;6510;51.362;7.370;2023-06-04T14:09:36;33.80;45.50
12885;DHT22;6510;51.362;7.370;2023-06-04T14:12:02;32.50;42.90
12885;DHT22;6510;51.362;7.370;2023-06-04T14:14:28;32.00;46.60
12885;DHT22;6510;51.362;7.370;2023-06-04T14:17:01;31.20;44.50
12885;DHT22;6510;51.362;7.370;2023-06-04T14:19:27;29.90;46.00
12885;DHT22;6510;51.362;7.370;2023-06-04T14:21:53;28.50;49.60
12885;DHT22;6510;51.362;7.370;2023-06-04T14:24:19;28.30;48.30
12885;DHT22;6510;51.362;7.370;2023-06-04T14:26:45;27.00;47.50
12885;DHT22;6510;51.362;7.370;2023-06-04T14:29:11;26.30;53.50
12885;DHT22;6510;51.362;7.370;2023-06-04T14:31:36;26.10;50.90
12885;DHT22;6510;51.362;7.370;2023-06-04T14:34:02;26.10;51.00
12885;DHT22;6510;51.362;7.370;2023-06-04T14:36:28;26.00;51.00
12885;DHT22;6510;51.362;7.370;2023-06-04T14:38:54;26.10;51.30
12885;DHT22;6510;51.362;7.370;2023-06-04T14:41:19;26.00;53.30
12885;DHT22;6510;51.362;7.370;2023-06-04T14:43:45;26.00;50.40
12885;DHT22;6510;51.362;7.370;2023-06-04T14:46:10;26.00;52.90
12885;DHT22;6510;51.362;7.370;2023-06-04T14:48:36;25.90;52.50
12885;DHT22;6510;51.362;7.370;2023-06-04T14:51:02;26.00;51.40
12885;DHT22;6510;51.362;7.370;2023-06-04T14:53:27;25.80;52.60
12885;DHT22;6510;51.362;7.370;2023-06-04T14:55:53;25.90;53.70
12885;DHT22;6510;51.362;7.370;2023-06-04T14:58:19;25.90;51.80
12885;DHT22;6510;51.362;7.370;2023-06-04T15:00:45;25.80;52.30
12885;DHT22;6510;51.362;7.370;2023-06-04T15:03:10;25.80;52.40
12885;DHT22;6510;51.362;7.370;2023-06-04T15:05:37;25.70;50.80
12885;DHT22;6510;51.362;7.370;2023-06-04T15:08:03;25.30;51.60
12885;DHT22;6510;51.362;7.370;2023-06-04T15:10:28;25.20;51.40
12885;DHT22;6510;51.362;7.370;2023-06-04T15:12:55;25.10;51.20
12885;DHT22;6510;51.362;7.370;2023-06-04T15:15:20;25.00;52.30
12885;DHT22;6510;51.362;7.370;2023-06-04T15:17:47;25.20;52.00
12885;DHT22;6510;51.362;7.370;2023-06-04T15:20:13;25.20;51.80
12885;DHT22;6510;51.362;7.370;2023-06-04T15:22:39;25.00;53.90
12885;DHT22;6510;51.362;7.370;2023-06-04T15:25:05;25.00;53.40
12885;DHT22;6510;51.362;7.370;2023-06-04T15:27:31;25.20;56.30
12885;DHT22;6510;51.362;7.370;2023-06-04T15:29:56;25.30;52.40
12885;DHT22;6510;51.362;7.370;2023-06-04T15:32:22;25.10;52.70
12885;DHT22;6510;51.362;7.370;2023-06-04T15:34:48;24.90;54.80
12885;DHT22;6510;51.362;7.370;2023-06-04T15:37:16;24.90;55.70
12885;DHT22;6510;51.362;7.370;2023-06-04T15:39:42;24.90;54.40
12885;DHT22;6510;51.362;7.370;2023-06-04T15:42:07;24.90;54.90
12885;DHT22;6510;51.362;7.370;2023-06-04T15:44:33;24.80;54.10
12885;DHT22;6510;51.362;7.370;2023-06-04T15:47:01;24.80;54.10
12885;DHT22;6510;51.362;7.370;2023-06-04T15:49:28;24.50;53.20
12885;DHT22;6510;51.362;7.370;2023-06-04T15:51:54;24.40;53.30
12885;DHT22;6510;51.362;7.370;2023-06-04T15:54:20;24.20;53.90
12885;DHT22;6510;51.362;7.370;2023-06-04T15:56:45;24.20;53.40